Time;durP1;ratioP1;P1;durP2;ratioP2;P2;SDS_P1;SDS_P2;PMS_P1;PMS_P2;Temp;Humidity;BMP_temperature;BMP_pressure;BME280_temperature;BME280_humidity;BME280_pressure;Samples;Min_cycle;Max_cycle;Signal;HPM_P1;HPM_P2
2023/08/04 00:02:11;;;;;;;;;;;;;;;;;;4949187;28;20281;-79
2023/08/04 00:04:57;;;;;;;;;;;;;;;;;;4943285;28;19926;-78
2023/08/04 00:07:44;;;;;;;;;;;;;;;;;;4939999;28;19930;-78
2023/08/04 00:10:30;;;;;;;;;;;;;;;;;;4944557;28;19926;-76
2023/08/04 00:13:17;;;;;;;;;;;;;;;;;;4956877;28;20698;-76
2023/08/04 00:16:03;;;;;;;;;;;;;;;;;;4939560;28;20674;-76
2023/08/04 00:18:50;;;;;;;;;;;;;;;;;;4939599;28;19918;-76
2023/08/04 00:21:36;;;;;;;;;;;;;;;;;;4961630;28;19926;-76
2023/08/04 00:24:22;;;;;;;;;;;;;;;;;;4952058;28;19935;-76
2023/08/04 00:27:09;;;;;;;;;;;;;;;;;;4945441;28;19918;-75
2023/08/04 00:29:56;;;;;;;;;;;;;;;;;;4953153;28;19923;-76
2023/08/04 00:32:42;;;;;;;;;;;;;;;;;;4947482;28;19918;-75
2023/08/04 00:35:29;;;;;;;;;;;;;;;;;;4946729;28;19934;-76
2023/08/04 00:38:15;;;;;;;;;;;;;;;;;;4939309;28;19927;-76
2023/08/04 00:41:02;;;;;;;;;;;;;;;;;;4960280;28;19918;-77
2023/08/04 00:43:48;;;;;;;;;;;;;;;;;;4950993;28;19921;-75
2023/08/04 00:46:35;;;;;;;;;;;;;;;;;;4949533;28;19929;-77
2023/08/04 00:49:21;;;;;;;;;;;;;;;;;;4942539;28;19923;-76
2023/08/04 00:52:08;;;;;;;;;;;;;;;;;;4941627;28;19937;-76
2023/08/04 00:54:54;;;;;;;;;;;;;;;;;;4943885;28;19934;-75
2023/08/04 00:57:41;;;;;;;;;;;;;;;;;;4945218;28;19918;-75
2023/08/04 01:00:27;;;;;;;;;;;;;;;;;;4959619;28;19933;-75
2023/08/04 01:03:14;;;;;;;;;;;;;;;;;;4951281;28;21131;-75
2023/08/04 01:06:01;;;;;;;;;;;;;;;;;;4954622;28;19925;-76
2023/08/04 01:08:47;;;;;;;;;;;;;;;;;;4953876;28;20294;-76
2023/08/04 01:11:34;;;;;;;;;;;;;;;;;;4942977;28;20196;-77
2023/08/04 01:14:21;;;;;;;;;;;;;;;;;;4937973;28;20409;-74
2023/08/04 01:17:07;;;;;;;;;;;;;;;;;;4942969;28;19930;-75
2023/08/04 01:19:53;;;;;;;;;;;;;;;;;;4944508;28;19933;-75
2023/08/04 01:22:40;;;;;;;;;;;;;;;;;;4941472;28;20293;-76
2023/08/04 01:25:26;;;;;;;;;;;;;;;;;;4939941;28;19929;-74
2023/08/04 01:28:13;;;;;;;;;;;;;;;;;;4942399;28;19940;-75
2023/08/04 01:30:59;;;;;;;;;;;;;;;;;;4943577;28;19919;-74
2023/08/04 01:33:46;;;;;;;;;;;;;;;;;;4941944;28;19923;-76
2023/08/04 01:36:32;;;;;;;;;;;;;;;;;;4942687;28;20306;-76
2023/08/04 01:39:19;;;;;;;;;;;;;;;;;;4950868;28;19926;-76
2023/08/04 01:42:05;;;;;;;;;;;;;;;;;;4943150;28;19934;-77
2023/08/04 01:44:52;;;;;;;;;;;;;;;;;;4949247;28;19919;-77
2023/08/04 01:47:39;;;;;;;;;;;;;;;;;;4948075;28;19922;-77
2023/08/04 01:50:25;;;;;;;;;;;;;;;;;;4963705;28;19950;-77
2023/08/04 01:53:12;;;;;;;;;;;;;;;;;;4956121;28;19934;-76
2023/08/04 01:55:58;;;;;;;;;;;;;;;;;;4944572;28;20413;-77
2023/08/04 01:58:45;;;;;;;;;;;;;;;;;;4950248;28;19926;-77
2023/08/04 02:01:31;;;;;;;;;;;;;;;;;;4947825;28;19918;-77
2023/08/04 02:04:18;;;;;;;;;;;;;;;;;;4961836;28;19933;-77
2023/08/04 02:07:04;;;;;;;;;;;;;;;;;;4963780;28;20502;-77
2023/08/04 02:09:52;;;;;;;;;;;;;;;;;;4961304;28;19926;-77
2023/08/04 02:12:39;;;;;;;;;;;;;;;;;;4953540;28;19918;-78
2023/08/04 02:15:26;;;;;;;;;;;;;;;;;;4946022;28;20716;-77
2023/08/04 02:18:13;;;;;;;;;;;;;;;;;;4944726;28;19922;-77
2023/08/04 02:20:59;;;;;;;;;;;;;;;;;;4949397;28;20329;-77
2023/08/04 02:23:46;;;;;;;;;;;;;;;;;;4962721;28;19929;-76
2023/08/04 02:26:32;;;;;;;;;;;;;;;;;;4964738;28;19918;-77
2023/08/04 02:29:19;;;;;;;;;;;;;;;;;;4963229;28;19922;-78
2023/08/04 02:32:05;;;;;;;;;;;;;;;;;;4982773;28;19910;-78
2023/08/04 02:34:52;;;;;;;;;;;;;;;;;;4952658;28;19923;-77
2023/08/04 02:37:38;;;;;;;;;;;;;;;;;;4949855;28;19930;-76
2023/08/04 02:40:25;;;;;;;;;;;;;;;;;;4952017;28;19937;-76
2023/08/04 02:43:11;;;;;;;;;;;;;;;;;;4969953;28;19923;-75
2023/08/04 02:45:58;;;;;;;;;;;;;;;;;;4970008;28;19929;-76
2023/08/04 02:48:44;;;;;;;;;;;;;;;;;;4965827;28;19923;-76
2023/08/04 02:51:30;;;;;;;;;;;;;;;;;;4967137;28;19918;-77
2023/08/04 02:54:17;;;;;;;;;;;;;;;;;;4963875;28;20474;-77
2023/08/04 02:57:03;;;;;;;;;;;;;;;;;;4954952;28;19929;-76
2023/08/04 02:59:50;;;;;;;;;;;;;;;;;;4972154;28;19960;-78
2023/08/04 03:02:36;;;;;;;;;;;;;;;;;;4963932;28;20430;-78
2023/08/04 03:05:23;;;;;;;;;;;;;;;;;;4951921;28;19922;-76
2023/08/04 03:08:09;;;;;;;;;;;;;;;;;;4950023;28;20294;-77
2023/08/04 03:10:56;;;;;;;;;;;;;;;;;;4949884;28;19956;-74
2023/08/04 03:13:42;;;;;;;;;;;;;;;;;;4947098;28;19941;-77
2023/08/04 03:16:29;;;;;;;;;;;;;;;;;;4944093;28;20394;-77
2023/08/04 03:19:17;;;;;;;;;;;;;;;;;;4942274;28;19934;-77
2023/08/04 03:22:04;;;;;;;;;;;;;;;;;;4947778;28;20540;-77
2023/08/04 03:24:50;;;;;;;;;;;;;;;;;;4941750;28;19925;-77
2023/08/04 03:27:37;;;;;;;;;;;;;;;;;;4951369;28;19929;-78
2023/08/04 03:30:23;;;;;;;;;;;;;;;;;;4953986;28;19923;-76
2023/08/04 03:33:10;;;;;;;;;;;;;;;;;;4961254;28;19922;-77
2023/08/04 03:35:56;;;;;;;;;;;;;;;;;;4959271;28;19950;-76
2023/08/04 03:38:43;;;;;;;;;;;;;;;;;;4953886;28;19918;-76
2023/08/04 03:41:29;;;;;;;;;;;;;;;;;;4958531;28;20385;-76
2023/08/04 03:44:16;;;;;;;;;;;;;;;;;;4949585;28;19929;-78
2023/08/04 03:47:02;;;;;;;;;;;;;;;;;;4959637;28;19940;-77
2023/08/04 03:49:49;;;;;;;;;;;;;;;;;;4941052;28;19929;-76
2023/08/04 03:52:35;;;;;;;;;;;;;;;;;;4940910;28;19923;-77
2023/08/04 03:55:22;;;;;;;;;;;;;;;;;;4941106;28;19948;-76
2023/08/04 03:58:08;;;;;;;;;;;;;;;;;;4945600;28;19929;-76
2023/08/04 04:00:55;;;;;;;;;;;;;;;;;;4957727;28;19933;-76
2023/08/04 04:03:41;;;;;;;;;;;;;;;;;;4961875;28;20445;-76
2023/08/04 04:06:28;;;;;;;;;;;;;;;;;;4959103;28;19918;-76
2023/08/04 04:09:15;;;;;;;;;;;;;;;;;;4961103;28;19918;-77
2023/08/04 04:12:02;;;;;;;;;;;;;;;;;;4960672;28;19918;-77
2023/08/04 04:14:49;;;;;;;;;;;;;;;;;;4946328;28;20869;-76
2023/08/04 04:17:35;;;;;;;;;;;;;;;;;;4940400;28;20400;-78
2023/08/04 04:20:21;;;;;;;;;;;;;;;;;;4943660;28;19926;-77
2023/08/04 04:23:08;;;;;;;;;;;;;;;;;;4953747;28;19954;-77
2023/08/04 04:25:54;;;;;;;;;;;;;;;;;;4941371;28;19923;-77
2023/08/04 04:28:41;;;;;;;;;;;;;;;;;;4956732;28;19929;-76
2023/08/04 04:31:27;;;;;;;;;;;;;;;;;;4947046;28;19922;-76
2023/08/04 04:34:14;;;;;;;;;;;;;;;;;;4966938;28;19929;-78
2023/08/04 04:37:00;;;;;;;;;;;;;;;;;;4947670;28;19930;-77
2023/08/04 04:39:47;;;;;;;;;;;;;;;;;;4942831;28;19929;-78
2023/08/04 04:42:33;;;;;;;;;;;;;;;;;;4961575;28;19926;-77
2023/08/04 04:45:20;;;;;;;;;;;;;;;;;;4952040;28;19922;-77
2023/08/04 04:48:06;;;;;;;;;;;;;;;;;;4963001;28;20384;-77
2023/08/04 04:50:53;;;;;;;;;;;;;;;;;;4959668;28;20393;-77
2023/08/04 04:53:39;;;;;;;;;;;;;;;;;;4943923;28;19923;-76
2023/08/04 04:56:26;;;;;;;;;;;;;;;;;;4942278;28;20589;-76
2023/08/04 04:59:12;;;;;;;;;;;;;;;;;;4944387;28;20034;-77
2023/08/04 05:01:59;;;;;;;;;;;;;;;;;;4945137;28;19941;-77
2023/08/04 05:04:45;;;;;;;;;;;;;;;;;;4941883;28;19922;-77
2023/08/04 05:07:32;;;;;;;;;;;;;;;;;;4930893;28;20293;-76
2023/08/04 05:10:18;;;;;;;;;;;;;;;;;;4951213;28;19926;-77
2023/08/04 05:13:05;;;;;;;;;;;;;;;;;;4944176;28;19925;-76
2023/08/04 05:15:51;;;;;;;;;;;;;;;;;;4951850;28;20408;-76
2023/08/04 05:18:37;;;;;;;;;;;;;;;;;;4961666;28;19918;-77
2023/08/04 05:21:24;;;;;;;;;;;;;;;;;;4949960;28;19921;-77
2023/08/04 05:24:11;;;;;;;;;;;;;;;;;;4953673;28;19929;-78
2023/08/04 05:26:58;;;;;;;;;;;;;;;;;;4946473;28;19922;-77
2023/08/04 05:29:44;;;;;;;;;;;;;;;;;;4947796;28;19922;-77
2023/08/04 05:32:31;;;;;;;;;;;;;;;;;;4944096;28;19928;-77
2023/08/04 05:35:17;;;;;;;;;;;;;;;;;;4949659;28;19933;-77
2023/08/04 05:38:04;;;;;;;;;;;;;;;;;;4960637;28;19929;-77
2023/08/04 05:40:50;;;;;;;;;;;;;;;;;;4945607;28;20004;-75
2023/08/04 05:43:37;;;;;;;;;;;;;;;;;;4949322;28;19945;-76
2023/08/04 05:46:23;;;;;;;;;;;;;;;;;;4952287;28;19922;-77
2023/08/04 05:49:10;;;;;;;;;;;;;;;;;;4960601;28;19922;-76
2023/08/04 05:51:56;;;;;;;;;;;;;;;;;;4950326;28;19930;-76
2023/08/04 05:54:43;;;;;;;;;;;;;;;;;;4960607;28;19933;-77
2023/08/04 05:57:29;;;;;;;;;;;;;;;;;;4953384;28;20007;-76
2023/08/04 06:00:16;;;;;;;;;;;;;;;;;;4943642;28;20306;-75
2023/08/04 06:03:04;;;;;;;;;;;;;;;;;;4948468;28;19918;-76
2023/08/04 06:05:50;;;;;;;;;;;;;;;;;;4953220;28;19922;-71
2023/08/04 06:08:37;;;;;;;;;;;;;;;;;;4967550;28;19926;-70
2023/08/04 06:11:24;;;;;;;;;;;;;;;;;;4967055;28;20238;-71
2023/08/04 06:14:11;;;;;;;;;;;;;;;;;;4965205;28;20302;-70
2023/08/04 06:16:57;;;;;;;;;;;;;;;;;;4964953;28;20232;-71
2023/08/04 06:19:43;;;;;;;;;;;;;;;;;;4960482;28;19922;-71
2023/08/04 06:22:30;;;;;;;;;;;;;;;;;;4963867;28;19922;-71
2023/08/04 06:25:16;;;;;;;;;;;;;;;;;;4963223;28;19926;-71
2023/08/04 06:28:03;;;;;;;;;;;;;;;;;;4962851;28;19956;-69
2023/08/04 06:30:50;;;;;;;;;;;;;;;;;;4964185;28;19930;-72
2023/08/04 06:33:37;;;;;;;;;;;;;;;;;;4965167;28;19922;-71
2023/08/04 06:36:23;;;;;;;;;;;;;;;;;;4953023;28;19930;-71
2023/08/04 06:39:10;;;;;;;;;;;;;;;;;;4957901;28;19938;-70
2023/08/04 06:41:56;;;;;;;;;;;;;;;;;;4963955;28;19926;-71
2023/08/04 06:44:43;;;;;;;;;;;;;;;;;;4953006;28;19926;-71
2023/08/04 06:47:29;;;;;;;;;;;;;;;;;;4965575;28;19921;-70
2023/08/04 06:50:16;;;;;;;;;;;;;;;;;;4961856;28;19926;-71
2023/08/04 06:53:02;;;;;;;;;;;;;;;;;;4962643;28;19922;-71
2023/08/04 06:55:49;;;;;;;;;;;;;;;;;;4958457;28;20312;-72
2023/08/04 06:58:35;;;;;;;;;;;;;;;;;;4958048;28;19938;-71
2023/08/04 07:01:22;;;;;;;;;;;;;;;;;;4963561;28;19949;-71
2023/08/04 07:04:08;;;;;;;;;;;;;;;;;;4963786;28;19925;-70
2023/08/04 07:06:55;;;;;;;;;;;;;;;;;;4962053;28;19929;-71
2023/08/04 07:09:41;;;;;;;;;;;;;;;;;;4965820;28;19922;-70
2023/08/04 07:12:28;;;;;;;;;;;;;;;;;;4960515;28;19926;-71
2023/08/04 07:15:15;;;;;;;;;;;;;;;;;;4960759;28;19930;-73
2023/08/04 07:18:02;;;;;;;;;;;;;;;;;;4963278;28;20382;-71
2023/08/04 07:20:48;;;;;;;;;;;;;;;;;;4959896;28;20413;-71
2023/08/04 07:23:35;;;;;;;;;;;;;;;;;;4965227;28;19926;-71
2023/08/04 07:26:21;;;;;;;;;;;;;;;;;;4963516;28;19933;-71
2023/08/04 07:29:08;;;;;;;;;;;;;;;;;;4964344;28;19928;-71
2023/08/04 07:31:54;;;;;;;;;;;;;;;;;;4942685;28;19922;-70
2023/08/04 07:34:41;;;;;;;;;;;;;;;;;;4945766;28;19923;-70
2023/08/04 07:37:27;;;;;;;;;;;;;;;;;;4944074;28;20283;-71
2023/08/04 07:40:14;;;;;;;;;;;;;;;;;;4941538;28;19918;-71
2023/08/04 07:43:00;;;;;;;;;;;;;;;;;;4963106;28;19922;-71
2023/08/04 07:45:47;;;;;;;;;;;;;;;;;;4961053;28;19922;-71
2023/08/04 07:48:33;;;;;;;;;;;;;;;;;;4960101;28;19922;-71
2023/08/04 07:51:20;;;;;;;;;;;;;;;;;;4960802;28;20050;-71
2023/08/04 07:54:06;;;;;;;;;;;;;;;;;;4961212;28;19922;-71
2023/08/04 07:56:53;;;;;;;;;;;;;;;;;;4961780;28;19976;-71
2023/08/04 07:59:39;;;;;;;;;;;;;;;;;;4964142;28;20386;-71
2023/08/04 08:02:26;;;;;;;;;;;;;;;;;;4962185;28;19936;-71
2023/08/04 08:05:12;;;;;;;;;;;;;;;;;;4964935;28;19922;-72
2023/08/04 08:07:59;;;;;;;;;;;;;;;;;;4961727;28;19922;-71
2023/08/04 08:10:45;;;;;;;;;;;;;;;;;;4964394;28;20453;-71
2023/08/04 08:13:32;;;;;;;;;;;;;;;;;;4963104;28;19929;-71
2023/08/04 08:16:18;;;;;;;;;;;;;;;;;;4960871;28;20238;-71
2023/08/04 08:19:05;;;;;;;;;;;;;;;;;;4964869;28;20298;-70
2023/08/04 08:21:51;;;;;;;;;;;;;;;;;;4955201;28;19922;-70
2023/08/04 08:24:37;;;;;;;;;;;;;;;;;;4963161;28;19947;-71
2023/08/04 08:27:24;;;;;;;;;;;;;;;;;;4954151;28;21372;-71
2023/08/04 08:30:11;;;;;;;;;;;;;;;;;;4941789;28;19922;-70
2023/08/04 08:32:57;;;;;;;;;;;;;;;;;;4947296;28;19922;-70
2023/08/04 08:35:44;;;;;;;;;;;;;;;;;;4963327;28;19957;-71
2023/08/04 08:38:30;;;;;;;;;;;;;;;;;;4961008;28;20360;-70
2023/08/04 08:41:17;;;;;;;;;;;;;;;;;;4962324;28;19927;-71
2023/08/04 08:44:03;;;;;;;;;;;;;;;;;;4963439;28;19926;-71
2023/08/04 08:46:50;;;;;;;;;;;;;;;;;;4941275;28;19987;-70
2023/08/04 08:49:36;;;;;;;;;;;;;;;;;;4944824;28;19934;-70
2023/08/04 08:52:23;;;;;;;;;;;;;;;;;;4948695;28;20662;-71
2023/08/04 08:55:09;;;;;;;;;;;;;;;;;;4961050;28;19933;-71
2023/08/04 08:57:56;;;;;;;;;;;;;;;;;;4966003;28;20552;-70
2023/08/04 09:00:43;;;;;;;;;;;;;;;;;;4962609;28;19922;-71
2023/08/04 09:03:29;;;;;;;;;;;;;;;;;;4957378;28;20294;-70
2023/08/04 09:06:18;;;;;;;;;;;;;;;;;;4961241;28;20403;-71
2023/08/04 09:09:05;;;;;;;;;;;;;;;;;;4963315;28;19926;-70
2023/08/04 09:11:51;;;;;;;;;;;;;;;;;;4942487;28;20511;-70
2023/08/04 09:14:38;;;;;;;;;;;;;;;;;;4941985;28;19923;-71
2023/08/04 09:17:25;;;;;;;;;;;;;;;;;;4948005;28;19930;-71
2023/08/04 09:20:12;;;;;;;;;;;;;;;;;;4962187;28;19933;-73
2023/08/04 09:22:58;;;;;;;;;;;;;;;;;;4954613;28;19923;-77
2023/08/04 09:25:45;;;;;;;;;;;;;;;;;;4964149;28;19926;-71
2023/08/04 09:28:31;;;;;;;;;;;;;;;;;;4941757;28;19925;-71
2023/08/04 09:31:18;;;;;;;;;;;;;;;;;;4959065;28;19925;-72
2023/08/04 09:34:04;;;;;;;;;;;;;;;;;;4960409;28;20370;-71
2023/08/04 09:36:51;;;;;;;;;;;;;;;;;;4941675;28;19930;-72
2023/08/04 09:39:37;;;;;;;;;;;;;;;;;;4961979;28;19945;-72
2023/08/04 09:42:24;;;;;;;;;;;;;;;;;;4962522;28;20449;-72
2023/08/04 09:45:10;;;;;;;;;;;;;;;;;;4963275;28;19926;-72
2023/08/04 09:47:57;;;;;;;;;;;;;;;;;;4962752;28;19926;-71
2023/08/04 09:50:43;;;;;;;;;;;;;;;;;;4954814;28;19970;-72
2023/08/04 09:53:30;;;;;;;;;;;;;;;;;;4962024;28;19928;-71
2023/08/04 09:56:17;;;;;;;;;;;;;;;;;;4966952;28;19934;-75
2023/08/04 09:59:03;;;;;;;;;;;;;;;;;;4959774;28;19937;-71
2023/08/04 10:01:50;;;;;;;;;;;;;;;;;;4942364;28;20524;-71
2023/08/04 10:04:36;;;;;;;;;;;;;;;;;;4961196;28;19933;-71
2023/08/04 10:07:23;;;;;;;;;;;;;;;;;;4964620;28;19932;-71
2023/08/04 10:10:10;;;;;;;;;;;;;;;;;;4965647;28;19922;-71
2023/08/04 10:12:56;;;;;;;;;;;;;;;;;;4950750;28;19926;-71
2023/08/04 10:15:43;;;;;;;;;;;;;;;;;;4966322;28;19984;-71
2023/08/04 10:18:29;;;;;;;;;;;;;;;;;;4963573;28;19925;-71
2023/08/04 10:21:16;;;;;;;;;;;;;;;;;;4963348;28;19918;-71
2023/08/04 10:24:02;;;;;;;;;;;;;;;;;;4961371;28;19928;-71
2023/08/04 10:26:49;;;;;;;;;;;;;;;;;;4957007;28;19927;-71
2023/08/04 10:29:35;;;;;;;;;;;;;;;;;;4949535;28;19926;-71
2023/08/04 10:32:22;;;;;;;;;;;;;;;;;;4950982;28;19964;-72
2023/08/04 10:35:09;;;;;;;;;;;;;;;;;;4963215;28;19922;-71
2023/08/04 10:37:56;;;;;;;;;;;;;;;;;;4963419;28;19922;-70
2023/08/04 10:40:42;;;;;;;;;;;;;;;;;;4962383;28;20352;-71
2023/08/04 10:43:29;;;;;;;;;;;;;;;;;;4959281;28;20374;-71
2023/08/04 10:46:15;;;;;;;;;;;;;;;;;;4961699;28;19918;-71
2023/08/04 10:49:02;;;;;;;;;;;;;;;;;;4946863;28;19922;-71
2023/08/04 10:51:49;;;;;;;;;;;;;;;;;;4945154;28;20177;-71
2023/08/04 10:54:35;;;;;;;;;;;;;;;;;;4943906;28;19922;-72
2023/08/04 10:57:22;;;;;;;;;;;;;;;;;;4942492;28;20469;-72
2023/08/04 11:00:09;;;;;;;;;;;;;;;;;;4943920;28;19931;-71
2023/08/04 11:02:55;;;;;;;;;;;;;;;;;;4942243;28;19919;-71
2023/08/04 11:05:42;;;;;;;;;;;;;;;;;;4949125;28;19929;-72
2023/08/04 11:08:28;;;;;;;;;;;;;;;;;;4961497;28;19918;-72
2023/08/04 11:11:15;;;;;;;;;;;;;;;;;;4967877;28;19922;-71
2023/08/04 11:14:03;;;;;;;;;;;;;;;;;;4961863;28;19944;-71
2023/08/04 11:16:49;;;;;;;;;;;;;;;;;;4963725;28;19942;-71
2023/08/04 11:19:36;;;;;;;;;;;;;;;;;;4962680;28;19922;-71
2023/08/04 11:22:22;;;;;;;;;;;;;;;;;;4961379;28;19926;-71
2023/08/04 11:25:09;;;;;;;;;;;;;;;;;;4962022;28;19929;-71
2023/08/04 11:27:55;;;;;;;;;;;;;;;;;;4949024;28;19926;-71
2023/08/04 11:30:42;;;;;;;;;;;;;;;;;;4940306;28;19923;-71
2023/08/04 11:33:28;;;;;;;;;;;;;;;;;;4943284;28;19930;-72
2023/08/04 11:36:15;;;;;;;;;;;;;;;;;;4953998;28;19926;-72
2023/08/04 11:39:01;;;;;;;;;;;;;;;;;;4953281;28;20290;-71
2023/08/04 11:41:48;;;;;;;;;;;;;;;;;;4975115;28;19922;-72
2023/08/04 11:44:34;;;;;;;;;;;;;;;;;;4961121;28;19926;-72
2023/08/04 11:47:21;;;;;;;;;;;;;;;;;;4951857;28;19922;-71
2023/08/04 11:50:07;;;;;;;;;;;;;;;;;;4947143;28;20302;-71
2023/08/04 11:52:54;;;;;;;;;;;;;;;;;;4952591;28;19922;-71
2023/08/04 11:55:40;;;;;;;;;;;;;;;;;;4955545;28;19937;-71
2023/08/04 11:58:27;;;;;;;;;;;;;;;;;;4959944;28;19930;-72
2023/08/04 12:01:13;;;;;;;;;;;;;;;;;;4959705;28;19985;-71
2023/08/04 12:04:00;;;;;;;;;;;;;;;;;;4963674;28;19930;-72
2023/08/04 12:06:46;;;;;;;;;;;;;;;;;;4962143;28;19922;-72
2023/08/04 12:09:33;;;;;;;;;;;;;;;;;;4964480;28;19928;-72
2023/08/04 12:12:19;;;;;;;;;;;;;;;;;;4961135;28;20573;-72
2023/08/04 12:15:06;;;;;;;;;;;;;;;;;;4959297;28;19933;-72
2023/08/04 12:17:52;;;;;;;;;;;;;;;;;;4938754;28;19934;-72
2023/08/04 12:20:39;;;;;;;;;;;;;;;;;;4956253;28;19928;-73
2023/08/04 12:23:25;;;;;;;;;;;;;;;;;;4944111;28;19925;-72
2023/08/04 12:26:12;;;;;;;;;;;;;;;;;;4940658;28;20306;-72
2023/08/04 12:28:58;;;;;;;;;;;;;;;;;;4940397;28;19933;-72
2023/08/04 12:31:44;;;;;;;;;;;;;;;;;;4943006;28;19926;-71
2023/08/04 12:34:31;;;;;;;;;;;;;;;;;;4939965;28;19929;-71
2023/08/04 12:37:18;;;;;;;;;;;;;;;;;;4941611;28;19941;-71
2023/08/04 12:40:04;;;;;;;;;;;;;;;;;;4944743;28;20004;-71
2023/08/04 12:42:50;;;;;;;;;;;;;;;;;;4942039;28;19938;-72
2023/08/04 12:45:37;;;;;;;;;;;;;;;;;;4940072;28;19931;-72
2023/08/04 12:48:23;;;;;;;;;;;;;;;;;;4943253;28;20009;-73
2023/08/04 12:51:10;;;;;;;;;;;;;;;;;;4945420;28;19945;-73
2023/08/04 12:53:56;;;;;;;;;;;;;;;;;;4951828;28;19927;-72
2023/08/04 12:56:43;;;;;;;;;;;;;;;;;;4939851;28;20393;-72
2023/08/04 12:59:30;;;;;;;;;;;;;;;;;;4960775;28;19930;-73
2023/08/04 13:02:17;;;;;;;;;;;;;;;;;;4961833;28;19933;-73
2023/08/04 13:05:03;;;;;;;;;;;;;;;;;;4955216;28;20329;-73
2023/08/04 13:07:50;;;;;;;;;;;;;;;;;;4956488;28;19933;-72
2023/08/04 13:10:36;;;;;;;;;;;;;;;;;;4961937;28;19926;-72
2023/08/04 13:13:23;;;;;;;;;;;;;;;;;;4959575;28;20573;-73
2023/08/04 13:16:09;;;;;;;;;;;;;;;;;;4964796;28;19930;-72
2023/08/04 13:18:56;;;;;;;;;;;;;;;;;;4953118;28;19933;-73
2023/08/04 13:21:42;;;;;;;;;;;;;;;;;;4970424;28;19928;-72
2023/08/04 13:24:29;;;;;;;;;;;;;;;;;;4946681;28;19933;-73
2023/08/04 13:27:15;;;;;;;;;;;;;;;;;;4943498;28;19978;-72
2023/08/04 13:30:03;;;;;;;;;;;;;;;;;;4953299;28;19929;-71
2023/08/04 13:32:49;;;;;;;;;;;;;;;;;;4956525;28;19937;-72
2023/08/04 13:35:36;;;;;;;;;;;;;;;;;;4964244;28;20026;-72
2023/08/04 13:38:22;;;;;;;;;;;;;;;;;;4961871;28;19926;-72
2023/08/04 13:41:09;;;;;;;;;;;;;;;;;;4952465;28;19933;-72
2023/08/04 13:43:55;;;;;;;;;;;;;;;;;;4955702;28;19937;-72
2023/08/04 13:46:41;;;;;;;;;;;;;;;;;;4941688;28;20375;-72
2023/08/04 13:49:28;;;;;;;;;;;;;;;;;;4946591;28;19926;-72
2023/08/04 13:52:15;;;;;;;;;;;;;;;;;;4958960;28;19933;-73
2023/08/04 13:55:01;;;;;;;;;;;;;;;;;;4962489;28;19922;-72
2023/08/04 13:57:48;;;;;;;;;;;;;;;;;;4964768;28;20386;-73
2023/08/04 14:00:34;;;;;;;;;;;;;;;;;;4963970;28;19933;-74
2023/08/04 14:03:21;;;;;;;;;;;;;;;;;;4962687;28;19922;-74
2023/08/04 14:06:07;;;;;;;;;;;;;;;;;;4962925;28;20016;-78
2023/08/04 14:08:54;;;;;;;;;;;;;;;;;;4960827;28;19923;-73
2023/08/04 14:11:40;;;;;;;;;;;;;;;;;;4959073;28;19929;-73
2023/08/04 14:14:27;;;;;;;;;;;;;;;;;;4949546;28;20346;-74
2023/08/04 14:17:13;;;;;;;;;;;;;;;;;;4955630;28;19937;-74
2023/08/04 14:19:59;;;;;;;;;;;;;;;;;;4951583;28;19929;-73
2023/08/04 14:22:46;;;;;;;;;;;;;;;;;;4947217;28;19922;-73
2023/08/04 14:25:32;;;;;;;;;;;;;;;;;;4941959;28;19922;-74
2023/08/04 14:28:20;;;;;;;;;;;;;;;;;;4941684;28;19926;-74
2023/08/04 14:31:07;;;;;;;;;;;;;;;;;;4951470;28;19922;-73
2023/08/04 14:33:53;;;;;;;;;;;;;;;;;;4951587;28;19927;-74
2023/08/04 14:36:40;;;;;;;;;;;;;;;;;;4954246;28;20321;-75
2023/08/04 14:39:26;;;;;;;;;;;;;;;;;;4951500;28;20373;-74
2023/08/04 14:42:13;;;;;;;;;;;;;;;;;;4941842;28;19922;-74
2023/08/04 14:44:59;;;;;;;;;;;;;;;;;;4943003;28;19923;-73
2023/08/04 14:47:46;;;;;;;;;;;;;;;;;;4942479;28;20867;-73
2023/08/04 14:50:32;;;;;;;;;;;;;;;;;;4941318;28;19922;-74
2023/08/04 14:53:19;;;;;;;;;;;;;;;;;;4942558;28;19926;-74
2023/08/04 14:56:05;;;;;;;;;;;;;;;;;;4941598;28;19953;-74
2023/08/04 14:58:52;;;;;;;;;;;;;;;;;;4953147;28;20338;-73
2023/08/04 15:01:38;;;;;;;;;;;;;;;;;;4962804;28;19932;-74
2023/08/04 15:04:25;;;;;;;;;;;;;;;;;;4951027;28;19923;-74
2023/08/04 15:07:11;;;;;;;;;;;;;;;;;;4963109;28;20711;-74
2023/08/04 15:09:58;;;;;;;;;;;;;;;;;;4955593;28;19928;-74
2023/08/04 15:12:44;;;;;;;;;;;;;;;;;;4963735;28;19929;-73
2023/08/04 15:15:31;;;;;;;;;;;;;;;;;;4962809;28;20393;-74
2023/08/04 15:18:17;;;;;;;;;;;;;;;;;;4960838;28;19934;-74
2023/08/04 15:21:04;;;;;;;;;;;;;;;;;;4961870;28;19929;-74
2023/08/04 15:23:50;;;;;;;;;;;;;;;;;;4950227;28;19926;-74
2023/08/04 15:26:37;;;;;;;;;;;;;;;;;;4960285;28;20264;-74
2023/08/04 15:29:23;;;;;;;;;;;;;;;;;;4961231;28;19929;-74
2023/08/04 15:32:10;;;;;;;;;;;;;;;;;;4959437;28;20298;-74
2023/08/04 15:34:56;;;;;;;;;;;;;;;;;;4963446;28;19932;-73
2023/08/04 15:37:43;;;;;;;;;;;;;;;;;;4961998;28;19976;-73
2023/08/04 15:40:29;;;;;;;;;;;;;;;;;;4962092;28;19932;-74
2023/08/04 15:43:19;;;;;;;;;;;;;;;;;;4964893;28;19930;-74
2023/08/04 15:46:05;;;;;;;;;;;;;;;;;;4949726;28;19962;-73
2023/08/04 15:48:52;;;;;;;;;;;;;;;;;;4959757;28;19922;-74
2023/08/04 15:51:38;;;;;;;;;;;;;;;;;;4957283;28;19933;-74
2023/08/04 15:54:25;;;;;;;;;;;;;;;;;;4960551;28;19925;-75
2023/08/04 15:57:11;;;;;;;;;;;;;;;;;;4949938;28;19934;-77
2023/08/04 15:59:58;;;;;;;;;;;;;;;;;;4956872;28;19937;-75
2023/08/04 16:02:44;;;;;;;;;;;;;;;;;;4960411;28;19944;-74
2023/08/04 16:05:31;;;;;;;;;;;;;;;;;;4962111;28;19929;-74
2023/08/04 16:08:17;;;;;;;;;;;;;;;;;;4961986;28;19922;-76
2023/08/04 16:11:08;;;;;;;;;;;;;;;;;;4958070;28;19922;-75
2023/08/04 16:13:54;;;;;;;;;;;;;;;;;;4960167;28;19937;-73
2023/08/04 16:16:41;;;;;;;;;;;;;;;;;;4954723;28;20404;-74
2023/08/04 16:19:27;;;;;;;;;;;;;;;;;;4959720;28;19922;-74
2023/08/04 16:22:14;;;;;;;;;;;;;;;;;;4962298;28;19922;-73
2023/08/04 16:25:00;;;;;;;;;;;;;;;;;;4953129;28;19930;-72
2023/08/04 16:27:47;;;;;;;;;;;;;;;;;;4943690;28;19933;-72
2023/08/04 16:30:35;;;;;;;;;;;;;;;;;;4940218;28;20705;-72
2023/08/04 16:33:21;;;;;;;;;;;;;;;;;;4958794;28;19926;-72
2023/08/04 16:36:08;;;;;;;;;;;;;;;;;;4960658;28;20444;-72
2023/08/04 16:38:54;;;;;;;;;;;;;;;;;;4944014;28;19922;-72
2023/08/04 16:41:41;;;;;;;;;;;;;;;;;;4959580;28;19918;-72
2023/08/04 16:44:27;;;;;;;;;;;;;;;;;;4957294;28;20588;-72
2023/08/04 16:47:14;;;;;;;;;;;;;;;;;;4957526;28;19958;-72
2023/08/04 16:50:00;;;;;;;;;;;;;;;;;;4958873;28;19922;-73
2023/08/04 16:52:49;;;;;;;;;;;;;;;;;;4962880;28;19946;-75
2023/08/04 16:55:35;;;;;;;;;;;;;;;;;;4962162;28;19922;-72
2023/08/04 16:58:22;;;;;;;;;;;;;;;;;;4959847;28;19941;-72
2023/08/04 17:01:08;;;;;;;;;;;;;;;;;;4961756;28;20385;-73
2023/08/04 17:03:55;;;;;;;;;;;;;;;;;;4964383;28;19980;-72
2023/08/04 17:06:41;;;;;;;;;;;;;;;;;;4963540;28;19922;-73
2023/08/04 17:09:28;;;;;;;;;;;;;;;;;;4959332;28;19919;-73
2023/08/04 17:12:14;;;;;;;;;;;;;;;;;;4959220;28;19922;-72
2023/08/04 17:15:01;;;;;;;;;;;;;;;;;;4957103;28;19925;-73
2023/08/04 17:17:47;;;;;;;;;;;;;;;;;;4951799;28;19932;-72
2023/08/04 17:20:34;;;;;;;;;;;;;;;;;;4959041;28;19922;-72
2023/08/04 17:23:20;;;;;;;;;;;;;;;;;;4958912;28;19923;-72
2023/08/04 17:26:07;;;;;;;;;;;;;;;;;;4960110;28;20377;-72
2023/08/04 17:28:53;;;;;;;;;;;;;;;;;;4958563;28;19929;-72
2023/08/04 17:31:43;;;;;;;;;;;;;;;;;;4959873;28;19924;-72
2023/08/04 17:34:30;;;;;;;;;;;;;;;;;;4957234;28;19914;-72
2023/08/04 17:37:16;;;;;;;;;;;;;;;;;;4960141;28;19930;-71
2023/08/04 17:40:03;;;;;;;;;;;;;;;;;;4956674;28;19922;-73
2023/08/04 17:42:49;;;;;;;;;;;;;;;;;;4958459;28;19926;-74
2023/08/04 17:45:36;;;;;;;;;;;;;;;;;;4957318;28;19944;-72
2023/08/04 17:48:22;;;;;;;;;;;;;;;;;;4958680;28;19922;-70
2023/08/04 17:51:09;;;;;;;;;;;;;;;;;;4958827;28;19933;-73
2023/08/04 17:53:55;;;;;;;;;;;;;;;;;;4958076;28;20353;-72
2023/08/04 17:56:42;;;;;;;;;;;;;;;;;;4957751;28;19934;-71
2023/08/04 17:59:28;;;;;;;;;;;;;;;;;;4957922;28;19930;-71
2023/08/04 18:02:15;;;;;;;;;;;;;;;;;;4962362;28;19934;-70
2023/08/04 18:05:02;;;;;;;;;;;;;;;;;;4960941;28;20624;-72
2023/08/04 18:07:48;;;;;;;;;;;;;;;;;;4962397;28;19928;-72
2023/08/04 18:10:35;;;;;;;;;;;;;;;;;;4961557;28;19922;-72
2023/08/04 18:13:21;;;;;;;;;;;;;;;;;;4957038;28;19926;-73
2023/08/04 18:16:08;;;;;;;;;;;;;;;;;;4961497;28;19998;-73
2023/08/04 18:18:54;;;;;;;;;;;;;;;;;;4961855;28;20394;-73
2023/08/04 18:21:41;;;;;;;;;;;;;;;;;;4959828;28;19922;-74
2023/08/04 18:24:28;;;;;;;;;;;;;;;;;;4960079;28;19926;-73
2023/08/04 18:27:14;;;;;;;;;;;;;;;;;;4962613;28;19929;-73
2023/08/04 18:30:01;;;;;;;;;;;;;;;;;;4960553;28;19918;-73
2023/08/04 18:32:47;;;;;;;;;;;;;;;;;;4959967;28;19929;-73
2023/08/04 18:35:34;;;;;;;;;;;;;;;;;;4961889;28;19918;-73
2023/08/04 18:38:21;;;;;;;;;;;;;;;;;;4961258;28;19930;-73
2023/08/04 18:41:08;;;;;;;;;;;;;;;;;;4960056;28;19921;-73
2023/08/04 18:43:54;;;;;;;;;;;;;;;;;;4961567;28;19929;-75
2023/08/04 18:46:41;;;;;;;;;;;;;;;;;;4961147;28;19922;-73
2023/08/04 18:49:28;;;;;;;;;;;;;;;;;;4965774;28;19933;-73
2023/08/04 18:52:14;;;;;;;;;;;;;;;;;;4958126;28;19936;-75
2023/08/04 18:55:01;;;;;;;;;;;;;;;;;;4961187;28;19928;-73
2023/08/04 18:57:48;;;;;;;;;;;;;;;;;;4959526;28;19937;-72